createdAt,value
2022-08-20T00:02:27.669Z,97519.78
2022-08-20T00:04:56.167Z,97516.72
2022-08-20T00:07:24.658Z,97512.28
2022-08-20T00:09:54.624Z,97518.16
2022-08-20T00:12:23.120Z,97515.41
2022-08-20T00:14:51.603Z,97522.47
2022-08-20T00:17:20.120Z,97522.81
2022-08-20T00:19:48.719Z,97529.16
2022-08-20T00:22:17.266Z,97530.59
2022-08-20T00:24:45.738Z,97523.88
2022-08-20T00:27:15.567Z,97524.16
2022-08-20T00:29:44.004Z,97521.84
2022-08-20T00:32:12.485Z,97519.03
2022-08-20T00:34:42.295Z,97524.91
2022-08-20T00:37:10.971Z,97527.66
2022-08-20T00:39:39.514Z,97520.47
2022-08-20T00:42:09.527Z,97525.22
2022-08-20T00:44:47.400Z,97529.97
2022-08-20T00:47:15.885Z,97524.09
2022-08-20T00:49:45.484Z,97521.41
2022-08-20T00:52:20.788Z,97516.59
2022-08-20T00:54:56.301Z,97518.44
2022-08-20T00:57:59.111Z,97517.53
2022-08-20T01:00:30.956Z,97519.53
2022-08-20T01:03:00.737Z,97516.81
2022-08-20T01:05:30.072Z,97516.81
2022-08-20T01:07:59.537Z,97523.00
2022-08-20T01:10:35.722Z,97527.78
2022-08-20T01:13:11.004Z,97521.22
2022-08-20T01:15:46.616Z,97534.09
2022-08-20T01:18:24.469Z,97528.72
2022-08-20T01:20:58.679Z,97529.06
2022-08-20T01:23:53.057Z,97535.81
2022-08-20T01:26:28.083Z,97530.28
2022-08-20T01:29:03.431Z,97530.22
2022-08-20T01:31:35.441Z,97523.94
2022-08-20T01:34:10.201Z,97532.91
2022-08-20T01:36:46.282Z,97522.63
2022-08-20T01:39:18.667Z,97525.75
2022-08-20T01:42:04.590Z,97529.72
2022-08-20T01:44:34.288Z,97527.34
2022-08-20T01:47:15.158Z,97528.50
2022-08-20T01:49:51.377Z,97524.53
2022-08-20T01:52:32.190Z,97528.50
2022-08-20T01:55:00.834Z,97530.97
2022-08-20T01:57:30.770Z,97531.28
2022-08-20T01:59:59.204Z,97524.09
2022-08-20T02:02:28.117Z,97528.84
2022-08-20T02:04:58.654Z,97520.59
2022-08-20T02:07:27.173Z,97526.34
2022-08-20T02:09:55.697Z,97528.91
2022-08-20T02:12:24.117Z,97529.34
2022-08-20T02:14:56.917Z,97521.59
2022-08-20T02:17:28.096Z,97528.88
2022-08-20T02:20:01.598Z,97530.41
2022-08-20T02:22:40.664Z,97527.16
2022-08-20T02:25:16.190Z,97524.47
2022-08-20T02:27:48.657Z,97531.16
2022-08-20T02:30:27.922Z,97532.75
2022-08-20T02:32:57.250Z,97549.75
2022-08-20T02:35:27.721Z,97539.19
2022-08-20T02:37:56.837Z,97538.00
2022-08-20T02:40:30.842Z,97536.00
2022-08-20T02:43:00.856Z,97535.13
2022-08-20T02:45:36.049Z,97540.31
2022-08-20T02:48:06.197Z,97547.38
2022-08-20T02:50:34.764Z,97548.22
2022-08-20T02:53:03.217Z,97554.22
2022-08-20T02:55:31.679Z,97552.41
2022-08-20T02:58:01.654Z,97555.91
2022-08-20T03:00:37.920Z,97552.34
2022-08-20T03:03:08.713Z,97557.47
2022-08-20T03:05:39.177Z,97551.84
2022-08-20T03:08:10.677Z,97554.22
2022-08-20T03:10:42.142Z,97559.06
2022-08-20T03:13:12.533Z,97558.66
2022-08-20T03:15:46.548Z,97560.97
2022-08-20T03:18:15.684Z,97560.22
2022-08-20T03:20:45.960Z,97563.34
2022-08-20T03:23:19.186Z,97563.03
2022-08-20T03:25:48.535Z,97569.25
2022-08-20T03:28:18.396Z,97576.28
2022-08-20T03:30:48.850Z,97563.25
2022-08-20T03:33:17.665Z,97561.25
2022-08-20T03:35:46.181Z,97578.56
2022-08-20T03:38:17.789Z,97574.69
2022-08-20T03:40:51.347Z,97585.31
2022-08-20T03:43:20.548Z,97574.25
2022-08-20T03:45:50.732Z,97587.63
2022-08-20T03:48:22.011Z,97586.13
2022-08-20T03:50:52.960Z,97590.03
2022-08-20T03:53:21.421Z,97592.03
2022-08-20T03:55:56.454Z,97589.31
2022-08-20T03:58:31.609Z,97592.03
2022-08-20T04:01:45.257Z,97591.13
2022-08-20T04:03:58.601Z,97591.13
2022-08-20T04:06:27.748Z,97584.88
2022-08-20T04:08:56.312Z,97590.06
2022-08-20T04:11:24.851Z,97587.69
2022-08-20T04:13:53.365Z,97586.16
2022-08-20T04:16:24.413Z,97583.81
2022-08-20T04:18:58.580Z,97584.66
2022-08-20T04:21:32.849Z,97585.38
2022-08-20T04:24:03.305Z,97576.69
2022-08-20T04:26:32.432Z,97590.88
2022-08-20T04:29:00.923Z,97577.88
2022-08-20T04:31:33.359Z,97588.44
2022-08-20T04:34:03.131Z,97588.38
2022-08-20T04:36:32.076Z,97593.94
2022-08-20T04:39:00.563Z,97603.00
2022-08-20T04:41:29.202Z,97597.16
2022-08-20T04:43:59.062Z,97603.94
2022-08-20T04:46:32.600Z,97600.44
2022-08-20T04:49:03.320Z,97600.38
2022-08-20T04:51:32.653Z,97605.16
2022-08-20T04:54:02.559Z,97611.13
2022-08-20T04:56:38.603Z,97609.56
2022-08-20T04:59:08.235Z,97615.06
2022-08-20T05:01:38.190Z,97613.56
2022-08-20T05:04:06.690Z,97612.06
2022-08-20T05:06:35.206Z,97619.94
2022-08-20T05:09:03.956Z,97620.91
2022-08-20T05:11:35.629Z,97610.69
2022-08-20T05:14:09.016Z,97620.19
2022-08-20T05:16:41.210Z,97621.44
2022-08-20T05:19:13.009Z,97634.78
2022-08-20T05:21:41.944Z,97628.56
2022-08-20T05:24:12.117Z,97636.06
2022-08-20T05:26:41.244Z,97637.66
2022-08-20T05:29:09.748Z,97643.50
2022-08-20T05:31:39.698Z,97642.47
2022-08-20T05:34:12.082Z,97641.63
2022-08-20T05:36:44.699Z,97640.53
2022-08-20T05:39:14.338Z,97644.56
2022-08-20T05:41:42.962Z,97644.69
2022-08-20T05:44:13.979Z,97634.38
2022-08-20T05:46:45.926Z,97640.78
2022-08-20T05:49:19.485Z,97638.50
2022-08-20T05:51:48.692Z,97646.16
2022-08-20T05:54:17.172Z,97638.00
2022-08-20T05:56:45.664Z,97638.50
2022-08-20T05:59:14.280Z,97639.38
2022-08-20T06:01:45.045Z,97635.16
2022-08-20T06:04:24.754Z,97635.19
2022-08-20T06:06:56.008Z,97630.16
2022-08-20T06:09:30.936Z,97628.56
2022-08-20T06:12:02.597Z,97633.72
2022-08-20T06:14:32.326Z,97635.78
2022-08-20T06:17:07.609Z,97632.66
2022-08-20T06:19:38.458Z,97632.59
2022-08-20T06:22:18.151Z,97638.91
2022-08-20T06:24:54.113Z,97636.53
2022-08-20T06:27:23.727Z,97644.44
2022-08-20T06:29:53.336Z,97646.00
2022-08-20T06:32:32.441Z,97648.78
2022-08-20T06:35:03.124Z,97647.19
2022-08-20T06:37:32.846Z,97652.66
2022-08-20T06:40:06.080Z,97649.09
2022-08-20T06:42:34.889Z,97644.81
2022-08-20T06:45:05.796Z,97651.59
2022-08-20T06:47:36.031Z,97649.94
2022-08-20T06:50:08.081Z,97652.75
2022-08-20T06:52:51.541Z,97651.47
2022-08-20T06:55:22.914Z,97651.16
2022-08-20T06:57:59.887Z,97648.72
2022-08-20T07:00:31.437Z,97650.34
2022-08-20T07:03:02.353Z,97645.22
2022-08-20T07:05:32.613Z,97653.97
2022-08-20T07:08:01.391Z,97649.34
2022-08-20T07:10:31.485Z,97646.63
2022-08-20T07:13:00.418Z,97644.63
2022-08-20T07:15:28.959Z,97649.00
2022-08-20T07:18:03.587Z,97654.91
2022-08-20T07:20:35.547Z,97656.19
2022-08-20T07:23:04.526Z,97652.22
2022-08-20T07:25:34.869Z,97660.56
2022-08-20T07:28:05.884Z,97660.59
2022-08-20T07:30:56.989Z,97656.13
2022-08-20T07:33:30.518Z,97660.88
2022-08-20T07:36:00.322Z,97664.41
2022-08-20T07:38:30.538Z,97671.91
2022-08-20T07:41:04.765Z,97673.88
2022-08-20T07:43:34.602Z,97664.81
2022-08-20T07:46:09.184Z,97674.34
2022-08-20T07:48:42.179Z,97671.59
2022-08-20T07:51:11.805Z,97681.38
2022-08-20T07:53:41.989Z,97686.91
2022-08-20T07:56:14.628Z,97685.28
2022-08-20T07:58:50.016Z,97689.28
2022-08-20T08:01:21.122Z,97691.25
2022-08-20T08:03:51.033Z,97692.53
2022-08-20T08:06:29.469Z,97687.81
2022-08-20T08:09:04.338Z,97688.16
2022-08-20T08:11:35.847Z,97693.28
2022-08-20T08:14:08.100Z,97694.81
2022-08-20T08:16:38.504Z,97691.34
2022-08-20T08:19:14.323Z,97694.09
2022-08-20T08:21:44.175Z,97697.66
2022-08-20T08:24:19.708Z,97695.28
2022-08-20T08:26:50.695Z,97692.03
2022-08-20T08:29:19.319Z,97696.50
2022-08-20T08:31:47.923Z,97692.56
2022-08-20T08:34:17.929Z,97694.97
2022-08-20T08:36:47.585Z,97698.19
2022-08-20T08:39:16.454Z,97701.34
2022-08-20T08:41:49.541Z,97701.38
2022-08-20T08:44:23.977Z,97708.88
2022-08-20T08:46:57.542Z,97700.94
2022-08-20T08:49:37.261Z,97701.38
2022-08-20T08:52:14.645Z,97711.69
2022-08-20T08:54:50.071Z,97705.75
2022-08-20T08:57:19.104Z,97705.78
2022-08-20T09:00:04.483Z,97703.38
2022-08-20T09:02:36.518Z,97701.44
2022-08-20T09:05:17.722Z,97704.19
2022-08-20T09:07:53.287Z,97712.09
2022-08-20T09:10:23.490Z,97703.00
2022-08-20T09:12:52.345Z,97723.16
2022-08-20T09:15:22.222Z,97718.41
2022-08-20T09:17:51.254Z,97720.78
2022-08-20T09:20:25.952Z,97718.41
2022-08-20T09:22:56.509Z,97715.19
2022-08-20T09:25:25.670Z,97721.53
2022-08-20T09:27:54.142Z,97720.34
2022-08-20T09:30:23.402Z,97724.66
2022-08-20T09:32:51.993Z,97729.81
2022-08-20T09:35:22.028Z,97723.06
2022-08-20T09:37:52.193Z,97729.81
2022-08-20T09:40:22.052Z,97730.56
2022-08-20T09:42:51.786Z,97733.69
2022-08-20T09:45:21.167Z,97733.69
2022-08-20T09:47:56.595Z,97733.63
2022-08-20T09:50:29.218Z,97732.06
2022-08-20T09:53:02.069Z,97739.19
2022-08-20T09:55:36.906Z,97739.91
2022-08-20T09:58:14.830Z,97737.97
2022-08-20T10:00:43.305Z,97738.75
2022-08-20T10:03:11.821Z,97745.44
2022-08-20T10:05:41.661Z,97740.25
2022-08-20T10:08:12.861Z,97746.56
2022-08-20T10:10:41.577Z,97750.91
2022-08-20T10:13:13.312Z,97752.84
2022-08-20T10:15:44.415Z,97746.47
2022-08-20T10:18:12.984Z,97755.94
2022-08-20T10:20:43.662Z,97749.25
2022-08-20T10:23:12.849Z,97748.41
2022-08-20T10:25:42.543Z,97744.50
2022-08-20T10:28:11.176Z,97742.19
2022-08-20T10:30:40.170Z,97753.97
2022-08-20T10:33:08.644Z,97756.38
2022-08-20T10:35:39.251Z,97747.25
2022-08-20T10:38:09.065Z,97754.03
2022-08-20T10:40:37.718Z,97752.44
2022-08-20T10:43:06.143Z,97748.81
2022-08-20T10:45:34.634Z,97749.66
2022-08-20T10:48:07.551Z,97756.75
2022-08-20T10:50:38.140Z,97758.69
2022-08-20T10:53:07.962Z,97765.47
2022-08-20T10:55:36.373Z,97762.38
2022-08-20T10:58:07.230Z,97775.44
2022-08-20T11:00:40.313Z,97771.50
2022-08-20T11:03:09.042Z,97767.59
2022-08-20T11:05:37.629Z,97766.41
2022-08-20T11:08:08.408Z,97770.38
2022-08-20T11:10:38.422Z,97763.72
2022-08-20T11:13:12.086Z,97764.53
2022-08-20T11:15:43.466Z,97759.41
2022-08-20T11:18:13.381Z,97757.78
2022-08-20T11:20:42.373Z,97767.31
2022-08-20T11:23:12.114Z,97763.00
2022-08-20T11:25:40.585Z,97765.03
2022-08-20T11:28:09.096Z,97764.25
2022-08-20T11:30:38.873Z,97763.47
2022-08-20T11:33:08.226Z,97760.69
2022-08-20T11:35:43.385Z,97759.53
2022-08-20T11:38:19.469Z,97758.34
2022-08-20T11:40:48.273Z,97755.19
2022-08-20T11:43:17.938Z,97754.78
2022-08-20T11:45:51.438Z,97756.38
2022-08-20T11:48:20.141Z,97754.81
2022-08-20T11:50:50.539Z,97748.44
2022-08-20T11:53:20.396Z,97751.22
2022-08-20T11:55:50.935Z,97746.88
2022-08-20T11:58:19.576Z,97746.47
2022-08-20T12:00:48.058Z,97762.28
2022-08-20T12:03:17.134Z,97750.47
2022-08-20T12:05:48.025Z,97754.38
2022-08-20T12:08:24.987Z,97761.13
2022-08-20T12:10:58.687Z,97750.47
2022-08-20T12:13:30.809Z,97748.06
2022-08-20T12:16:17.539Z,97744.03
2022-08-20T12:18:46.293Z,97742.41
2022-08-20T12:21:15.190Z,97746.28
2022-08-20T12:23:45.161Z,97754.19
2022-08-20T12:26:13.993Z,97743.88
2022-08-20T12:28:42.427Z,97739.19
2022-08-20T12:31:11.138Z,97740.72
2022-08-20T12:33:39.658Z,97736.00
2022-08-20T12:36:08.833Z,97736.00
2022-08-20T12:38:37.420Z,97728.84
2022-08-20T12:41:10.117Z,97733.50
2022-08-20T12:43:38.744Z,97733.06
2022-08-20T12:46:07.544Z,97737.00
2022-08-20T12:48:36.081Z,97735.44
2022-08-20T12:51:07.770Z,97739.91
2022-08-20T12:53:36.194Z,97741.91
2022-08-20T12:56:09.679Z,97734.78
2022-08-20T12:58:38.163Z,97730.84
2022-08-20T13:01:06.928Z,97724.09
2022-08-20T13:03:44.820Z,97732.47
2022-08-20T13:06:13.689Z,97734.50
2022-08-20T13:08:42.340Z,97739.97
2022-08-20T13:11:12.164Z,97732.06
2022-08-20T13:13:40.683Z,97731.63
2022-08-20T13:16:09.173Z,97724.91
2022-08-20T13:18:37.595Z,97728.75
2022-08-20T13:21:06.234Z,97730.31
2022-08-20T13:23:34.759Z,97729.91
2022-08-20T13:26:07.342Z,97727.13
2022-08-20T13:28:37.322Z,97726.72
2022-08-20T13:31:08.876Z,97726.78
2022-08-20T13:33:37.433Z,97728.84
2022-08-20T13:36:09.612Z,97716.94
2022-08-20T13:38:38.137Z,97715.69
2022-08-20T13:41:07.118Z,97717.22
2022-08-20T13:43:37.013Z,97720.00
2022-08-20T13:46:06.462Z,97721.97
2022-08-20T13:48:35.039Z,97722.78
2022-08-20T13:51:07.074Z,97720.75
2022-08-20T13:53:35.746Z,97721.47
2022-08-20T13:56:07.774Z,97719.88
2022-08-20T13:58:37.734Z,97724.63
2022-08-20T14:01:06.556Z,97725.03
2022-08-20T14:03:35.179Z,97724.09
2022-08-20T14:06:09.599Z,97721.72
2022-08-20T14:08:38.468Z,97713.72
2022-08-20T14:11:07.328Z,97711.38
2022-08-20T14:13:42.655Z,97715.63
2022-08-20T14:16:21.403Z,97710.78
2022-08-20T14:18:56.375Z,97716.31
2022-08-20T14:21:25.123Z,97707.22
2022-08-20T14:23:53.605Z,97711.09
2022-08-20T14:26:22.219Z,97712.16
2022-08-20T14:28:52.091Z,97717.75
2022-08-20T14:31:20.628Z,97707.03
2022-08-20T14:33:51.530Z,97702.59
2022-08-20T14:36:20.025Z,97698.97
2022-08-20T14:38:48.521Z,97698.94
2022-08-20T14:41:17.058Z,97696.88
2022-08-20T14:43:45.515Z,97695.03
2022-08-20T14:46:15.388Z,97694.41
2022-08-20T14:48:43.850Z,97697.59
2022-08-20T14:51:12.353Z,97698.41
2022-08-20T14:53:40.858Z,97697.28
2022-08-20T14:56:09.699Z,97700.91
2022-08-20T14:58:38.176Z,97692.91
2022-08-20T15:01:07.111Z,97690.66
2022-08-20T15:03:37.037Z,97686.03
2022-08-20T15:06:12.247Z,97689.72
2022-08-20T15:08:50.736Z,97689.69
2022-08-20T15:11:19.178Z,97693.97
2022-08-20T15:13:47.616Z,97694.78
2022-08-20T15:16:16.038Z,97698.72
2022-08-20T15:18:45.975Z,97693.16
2022-08-20T15:21:15.782Z,97701.19
2022-08-20T15:23:46.548Z,97697.31
2022-08-20T15:26:15.030Z,97695.75
2022-08-20T15:28:43.561Z,97705.31
2022-08-20T15:31:14.006Z,97706.97
2022-08-20T15:33:43.361Z,97713.34
2022-08-20T15:36:13.659Z,97712.19
2022-08-20T15:38:42.099Z,97712.13
2022-08-20T15:41:10.552Z,97709.41
2022-08-20T15:43:39.068Z,97701.50
2022-08-20T15:46:07.976Z,97715.75
2022-08-20T15:48:40.867Z,97707.88
2022-08-20T15:51:24.263Z,97711.94
2022-08-20T15:54:00.278Z,97700.84
2022-08-20T15:57:01.836Z,97720.25
2022-08-20T16:00:00.287Z,97712.34
2022-08-20T16:03:22.177Z,97721.06
2022-08-20T16:06:00.709Z,97726.19
2022-08-20T16:08:58.915Z,97718.63
2022-08-20T16:11:53.436Z,97725.41
2022-08-20T16:14:26.149Z,97729.38
2022-08-20T16:17:02.474Z,97725.03
2022-08-20T16:19:44.658Z,97726.66
2022-08-20T16:22:18.441Z,97727.06
2022-08-20T16:24:48.925Z,97723.94
2022-08-20T16:27:34.949Z,97724.72
2022-08-20T16:30:08.587Z,97720.78
2022-08-20T16:32:44.601Z,97736.59
2022-08-20T16:35:34.200Z,97738.16
2022-08-20T16:38:20.852Z,97742.13
2022-08-20T16:40:57.378Z,97735.81
2022-08-20T16:43:36.444Z,97744.09
2022-08-20T16:46:19.189Z,97747.25
2022-08-20T16:48:57.964Z,97740.97
2022-08-20T16:51:38.162Z,97741.34
2022-08-20T16:54:07.389Z,97746.47
2022-08-20T16:56:41.976Z,97747.28
2022-08-20T16:59:24.580Z,97752.81
2022-08-20T17:02:10.294Z,97750.03
2022-08-20T17:04:58.516Z,97749.63
2022-08-20T17:07:43.461Z,97752.00
2022-08-20T17:10:21.519Z,97746.84
2022-08-20T17:12:59.468Z,97748.78
2022-08-20T17:15:31.598Z,97748.38
2022-08-20T17:18:21.492Z,97758.63
2022-08-20T17:20:50.146Z,97746.72
2022-08-20T17:23:22.660Z,97750.69
2022-08-20T17:26:00.494Z,97753.84
2022-08-20T17:28:35.248Z,97759.34
2022-08-20T17:31:07.160Z,97765.66
2022-08-20T17:33:40.369Z,97768.75
2022-08-20T17:36:19.777Z,97773.88
2022-08-20T17:38:52.627Z,97775.84
2022-08-20T17:41:26.514Z,97781.38
2022-08-20T17:44:03.010Z,97781.25
2022-08-20T17:46:36.973Z,97793.78
2022-08-20T17:49:11.848Z,97789.34
2022-08-20T17:51:51.543Z,97797.00
2022-08-20T17:54:28.128Z,97800.44
2022-08-20T17:57:04.440Z,97796.41
2022-08-20T18:00:01.813Z,97800.31
2022-08-20T18:02:30.918Z,97795.59
2022-08-20T18:04:59.834Z,97793.13
2022-08-20T18:07:37.513Z,97794.97
2022-08-20T18:10:13.749Z,97792.25
2022-08-20T18:12:53.070Z,97806.00
2022-08-20T18:15:27.436Z,97815.84
2022-08-20T18:18:18.658Z,97821.34
2022-08-20T18:21:47.154Z,97818.97
2022-08-20T18:24:24.487Z,97817.00
2022-08-20T18:27:02.051Z,97821.25
2022-08-20T18:29:36.018Z,97820.91
2022-08-20T18:32:19.394Z,97824.50
2022-08-20T18:34:48.227Z,97818.94
2022-08-20T18:37:27.750Z,97816.94
2022-08-20T18:40:11.439Z,97820.41
2022-08-20T18:42:40.193Z,97817.69
2022-08-20T18:45:10.144Z,97813.72
2022-08-20T18:47:46.807Z,97816.78
2022-08-20T18:50:24.924Z,97810.84
2022-08-20T18:53:10.653Z,97809.22
2022-08-20T18:55:42.977Z,97805.66
2022-08-20T18:58:15.057Z,97806.94
2022-08-20T19:00:47.175Z,97810.97
2022-08-20T19:03:27.311Z,97813.41
2022-08-20T19:06:26.303Z,97811.41
2022-08-20T19:09:03.397Z,97818.13
2022-08-20T19:12:09.957Z,97818.13
2022-08-20T19:15:02.358Z,97813.38
2022-08-20T19:17:49.565Z,97803.09
2022-08-20T19:20:23.927Z,97816.13
2022-08-20T19:22:56.485Z,97812.13
2022-08-20T19:25:29.928Z,97810.19
2022-08-20T19:28:00.941Z,97807.03
2022-08-20T19:30:38.037Z,97805.84
2022-08-20T19:33:08.398Z,97798.75
2022-08-20T19:35:38.816Z,97798.63
2022-08-20T19:38:09.631Z,97800.09
2022-08-20T19:40:43.535Z,97800.09
2022-08-20T19:43:20.289Z,97798.09
2022-08-20T19:45:54.186Z,97794.47
2022-08-20T19:48:56.218Z,97790.94
2022-08-20T19:51:40.789Z,97799.53
2022-08-20T19:54:22.549Z,97806.13
2022-08-20T19:56:51.349Z,97803.59
2022-08-20T19:59:22.486Z,97801.88
2022-08-20T20:02:00.286Z,97807.81
2022-08-20T20:04:37.207Z,97805.81
2022-08-20T20:07:19.499Z,97804.63
2022-08-20T20:09:56.261Z,97803.78
2022-08-20T20:12:25.653Z,97807.59
2022-08-20T20:14:56.179Z,97795.47
2022-08-20T20:17:30.263Z,97805.31
2022-08-20T20:20:24.582Z,97798.63
2022-08-20T20:23:00.933Z,97806.63
2022-08-20T20:25:44.582Z,97805.06
2022-08-20T20:28:19.509Z,97806.16
2022-08-20T20:30:49.266Z,97801.75
2022-08-20T20:33:27.381Z,97813.84
2022-08-20T20:36:09.288Z,97815.84
2022-08-20T20:38:54.046Z,97809.94
2022-08-20T20:41:28.231Z,97811.41
2022-08-20T20:44:04.417Z,97810.69
2022-08-20T20:46:35.761Z,97806.72
2022-08-20T20:49:22.637Z,97802.81
2022-08-20T20:51:59.762Z,97805.50
2022-08-20T20:54:41.406Z,97807.56
2022-08-20T20:57:38.764Z,97805.91
2022-08-20T21:00:14.884Z,97806.28
2022-08-20T21:02:43.594Z,97799.19
2022-08-20T21:05:14.980Z,97801.94
2022-08-20T21:07:50.128Z,97799.69
2022-08-20T21:10:25.708Z,97801.16
2022-08-20T21:12:56.033Z,97794.75
2022-08-20T21:15:27.103Z,97794.44
2022-08-20T21:17:59.258Z,97791.19
2022-08-20T21:20:28.816Z,97788.88
2022-08-20T21:22:58.898Z,97789.63
2022-08-20T21:25:32.814Z,97781.25
2022-08-20T21:28:01.700Z,97789.56
2022-08-20T21:30:31.022Z,97789.13
2022-08-20T21:32:59.697Z,97787.19
2022-08-20T21:35:28.474Z,97785.94
2022-08-20T21:37:56.914Z,97787.16
2022-08-20T21:40:28.345Z,97791.13
2022-08-20T21:42:58.662Z,97793.81
2022-08-20T21:45:28.471Z,97794.09
2022-08-20T21:47:57.479Z,97793.78
2022-08-20T21:50:27.443Z,97800.91
2022-08-20T21:52:59.448Z,97800.47
2022-08-20T21:55:31.600Z,97797.75
2022-08-20T21:58:05.138Z,97797.75
2022-08-20T22:00:55.182Z,97795.78
2022-08-20T22:03:27.316Z,97791.13
2022-08-20T22:05:57.217Z,97794.53
2022-08-20T22:08:28.309Z,97787.44
2022-08-20T22:10:59.643Z,97793.03
2022-08-20T22:13:33.514Z,97786.31
2022-08-20T22:16:07.326Z,97796.97
2022-08-20T22:18:36.657Z,97792.09
2022-08-20T22:21:12.018Z,97790.50
2022-08-20T22:23:40.594Z,97795.28
2022-08-20T22:26:09.577Z,97789.75
2022-08-20T22:28:40.259Z,97785.81
2022-08-20T22:31:09.894Z,97795.91
2022-08-20T22:33:40.377Z,97790.00
2022-08-20T22:36:09.091Z,97790.41
2022-08-20T22:38:37.812Z,97790.81
2022-08-20T22:41:09.578Z,97784.81
2022-08-20T22:43:55.646Z,97783.69
2022-08-20T22:46:28.230Z,97781.75
2022-08-20T22:48:57.638Z,97788.06
2022-08-20T22:51:38.783Z,97793.25
2022-08-20T22:54:12.133Z,97790.50
2022-08-20T22:56:40.955Z,97789.00
2022-08-20T22:59:11.151Z,97785.06
2022-08-20T23:01:39.942Z,97771.25
2022-08-20T23:04:15.653Z,97785.81
2022-08-20T23:06:44.156Z,97780.56
2022-08-20T23:09:12.907Z,97779.00
2022-08-20T23:11:42.317Z,97782.06
2022-08-20T23:14:12.408Z,97774.13
2022-08-20T23:16:46.187Z,97777.69
2022-08-20T23:19:21.422Z,97773.63
2022-08-20T23:21:50.825Z,97772.63
2022-08-20T23:24:20.926Z,97774.13
2022-08-20T23:26:52.593Z,97771.69
2022-08-20T23:29:25.531Z,97767.00
2022-08-20T23:31:56.114Z,97777.41
2022-08-20T23:34:24.924Z,97775.78
2022-08-20T23:36:54.993Z,97765.59
2022-08-20T23:39:24.960Z,97768.28
2022-08-20T23:41:53.686Z,97766.72
2022-08-20T23:44:25.896Z,97772.44
2022-08-20T23:46:57.726Z,97767.56
2022-08-20T23:49:27.428Z,97758.28
2022-08-20T23:51:57.680Z,97758.75
2022-08-20T23:54:26.200Z,97757.44
2022-08-20T23:56:56.833Z,97754.69
2022-08-20T23:59:27.360Z,97751.44
